Mendon - 24 Hour Table
Date & TimeSolar
Radiation
(W/m²)
Wind
Speed
(mph)
Wind
Direction
(degrees)
Air
Temperature
(°F)
Relative
Humidity
(%)
Precipitation
(inches)
2020/11/25 17:00 17 2.5 280 42.1 45 0.00
2020/11/25 16:00 52 2.0 192 42.7 39 0.00
2020/11/25 15:00 119 0.6 223 40.9 48 0.00
2020/11/25 14:00 155 0.3 315 40.0 56 0.00
2020/11/25 13:00 494 0.0 118 39.7 52 0.00
2020/11/25 12:00 352 0.0 141 35.6 58 0.00
2020/11/25 11:00 423 0.1 15 32.8 70 0.00
2020/11/25 10:00 260 0.0 93 28.0 79 0.00
2020/11/25 09:00 73 0.0 342 23.2 88 0.00
2020/11/25 08:00 17 0.0 331 20.3 94 0.00
2020/11/25 07:00 1 0.0 289 19.6 94 0.00
2020/11/25 06:00 1 0.0 298 20.1 93 0.00
2020/11/25 05:00 1 0.0 270 20.5 92 0.00
2020/11/25 04:00 1 0.0 278 20.9 91 0.00
2020/11/25 03:00 1 0.0 252 21.5 90 0.00
2020/11/25 02:00 1 0.0 283 21.9 90 0.00
2020/11/25 01:00 1 0.0 285 22.5 89 0.00
2020/11/25 00:00 1 0.0 270 22.7 89 0.00
2020/11/24 23:00 1 0.0 200 23.8 87 0.00
2020/11/24 22:00 1 0.0 213 25.3 84 0.00
2020/11/24 21:00 1 0.0 276 26.7 80 0.00
2020/11/24 20:00 1 0.0 303 30.1 81 0.00
2020/11/24 19:00 1 0.0 250 32.9 71 0.00
2020/11/24 18:00 2 0.0 289 33.7 69 0.00